ADDS METAR Data INFO
IDs: Format: Raw Decoded Include TAF

Data at: 1009 UTC 14 Dec 2017

KBQP 140955Z AUTO 00000KT 10SM CLR 02/01 A2993 RMK AO2 T00210006
KBQP 140935Z AUTO 00000KT 10SM CLR 03/01 A2993 RMK AO2 T00290005
KBQP 140915Z AUTO 00000KT 10SM CLR 03/00 A2994 RMK AO2 T00280001
KBQP 140855Z AUTO 00000KT 10SM CLR 03/00 A2994 RMK AO2 T00290000
KBQP 140835Z AUTO 21003KT 10SM CLR 04/00 A2994 RMK AO2 T00360000
KBQP 140815Z AUTO 21003KT 10SM CLR 04/00 A2994 RMK AO2 T00400000
KBQP 140755Z AUTO 00000KT 10SM CLR 03/00 A2994 RMK AO2 T00300000
KBQP 140735Z AUTO 00000KT 10SM CLR 05/00 A2993 RMK AO2 T00470000
KBQP 140715Z AUTO 00000KT 10SM CLR 05/00 A2994 RMK AO2 T00470000
KBQP 140655Z AUTO 00000KT 10SM CLR 05/00 A2994 RMK AO2 T00531001
KBQP 140635Z AUTO 00000KT 10SM CLR 05/00 A2994 RMK AO2 T00531001
KBQP 140615Z AUTO 00000KT 10SM CLR 06/00 A2994 RMK AO2 T00561002
KBQP 140555Z AUTO 21003KT 10SM CLR 07/00 A2994 RMK AO2 T00661001 10122 20066 401701036
KBQP 140535Z AUTO 21004KT 10SM CLR 07/00 A2994 RMK AO2 T00701002
KBQP 140515Z AUTO 22004KT 10SM CLR 07/00 A2994 RMK AO2 T00711003
KBQP 140455Z AUTO 22005KT 10SM CLR 08/00 A2994 RMK AO2 T00761005
KBQP 140435Z AUTO 21005KT 10SM CLR 08/00 A2995 RMK AO2 T00811005
KBQP 140415Z AUTO 22005KT 10SM CLR 08/M01 A2994 RMK AO2 T00831006
KBQP 140355Z AUTO 22006KT 10SM CLR 09/M01 A2994 RMK AO2 T00851007
KBQP 140335Z AUTO 21006KT 10SM CLR 09/M01 A2994 RMK AO2 T00891010
KBQP 140315Z AUTO 21007KT 10SM CLR 09/M01 A2994 RMK AO2 T00911010
KBQP 140255Z AUTO 21006KT 10SM CLR 09/M01 A2994 RMK AO2 T00921011
KBQP 140235Z AUTO 22006KT 10SM CLR 10/M01 A2994 RMK AO2 T00951012
KBQP 140215Z AUTO 00000KT 10SM CLR 10/M01 A2994 RMK AO2 T00961015
KBQP 140155Z AUTO 00000KT 10SM CLR 11/M02 A2992 RMK AO2 T01061016
KBQP 140135Z AUTO 21009KT 10SM CLR 11/M02 A2992 RMK AO2 T01111016
KBQP 140115Z AUTO 20009G14KT 10SM CLR 12/M02 A2991 RMK AO2 T01151019
KBQP 140055Z AUTO 20008KT 10SM CLR 12/M02 A2991 RMK AO2 T01171020
KBQP 140035Z AUTO 20008KT 10SM CLR 12/M02 A2992 RMK AO2 T01181021
KBQP 140015Z AUTO 21006KT 10SM CLR 12/M02 A2991 RMK AO2 T01201023
KBQP 132355Z AUTO 20007KT 10SM CLR 12/M02 A2991 RMK AO2 T01231024 10170 20122
KBQP 132335Z AUTO 19004KT 10SM CLR 13/M03 A2991 RMK AO2 T01261030
KBQP 132315Z AUTO 20007KT 10SM CLR 13/M03 A2991 RMK AO2 T01301030
KBQP 132255Z AUTO 21007KT 10SM CLR 14/M03 A2992 RMK AO2 T01391033
KBQP 132235Z AUTO 22010KT 10SM CLR 15/M04 A2993 RMK AO2 T01501037
KBQP 132215Z AUTO 22009G17KT 10SM CLR 16/M04 A2993 RMK AO2 T01561040
KBQP 132155Z AUTO 21009KT 10SM CLR 16/M04 A2993 RMK AO2 T01601044
KBQP 132135Z AUTO 22010G16KT 10SM CLR 17/M04 A2994 RMK AO2 T01651044
KBQP 132115Z AUTO 21010G16KT 10SM CLR 17/M04 A2996 RMK AO2 T01681040
KBQP 132055Z AUTO 23010G16KT 10SM CLR 17/M04 A2997 RMK AO2 T01691042
KBQP 132035Z AUTO 22012G16KT 10SM CLR 17/M04 A2997 RMK AO2 T01661043
KBQP 132015Z AUTO 21008G15KT 10SM CLR 17/M05 A2997 RMK AO2 T01671046
KBQP 131955Z AUTO 22010KT 10SM CLR 17/M05 A2997 RMK AO2 T01651049
KBQP 131935Z AUTO 24009G15KT 10SM CLR 16/M05 A2997 RMK AO2 T01641050
KBQP 131915Z AUTO 21009KT 10SM CLR 16/M05 A2998 RMK AO2 T01611050
KBQP 131855Z AUTO 20008KT 10SM CLR 16/M05 A2999 RMK AO2 T01571050
KBQP 131835Z AUTO 22010KT 10SM CLR 15/M05 A3001 RMK AO2 T01521051
KBQP 131815Z AUTO 22010G15KT 10SM CLR 15/M05 A3002 RMK AO2 T01491050
KBQP 131755Z AUTO 20011KT 10SM CLR 14/M05 A3004 RMK AO2 T01401051 10142 21036
KBQP 131735Z AUTO 20006G15KT 10SM CLR 13/M05 A3005 RMK AO2 T01331052
KBQP 131715Z AUTO 21014KT 10SM CLR 13/M06 A3007 RMK AO2 T01301059
KBQP 131655Z AUTO 19006KT 10SM CLR 12/M05 A3008 RMK AO2 T01231051
KBQP 131635Z AUTO 17007KT 10SM CLR 11/M03 A3009 RMK AO2 T01131028
KBQP 131615Z AUTO 17005KT 10SM CLR 11/M04 A3009 RMK AO2 T01091039
KBQP 131555Z AUTO 20006KT 10SM CLR 10/M04 A3010 RMK AO2 T00961041
KBQP 131535Z AUTO 21006KT 10SM CLR 08/M03 A3012 RMK AO2 T00831033
KBQP 131515Z AUTO 21004KT 10SM CLR 07/M03 A3012 RMK AO2 T00661026
KBQP 131455Z AUTO 22003KT 10SM CLR 05/M02 A3012 RMK AO2 T00481022
KBQP 131435Z AUTO 22003KT 10SM CLR 03/00 A3012 RMK AO2 T00331005
KBQP 131415Z AUTO 00000KT 10SM CLR 01/M02 A3011 RMK AO2 T00111017
KBQP 131355Z AUTO 00000KT 10SM CLR M01/M01 A3011 RMK AO2 T10081011
KBQP 131335Z AUTO 00000KT 10SM CLR M03/M03 A3011 RMK AO2 T10261029
KBQP 131315Z AUTO 00000KT 10SM CLR M03/M04 A3012 RMK AO2 T10351037
KBQP 131255Z AUTO 00000KT 10SM CLR M03/M04 A3012 RMK AO2 T10351038
KBQP 131235Z AUTO 00000KT 10SM CLR M03/M03 A3012 RMK AO2 T10321035
KBQP 131215Z AUTO 00000KT 10SM CLR M03/M04 A3012 RMK AO2 T10351038
KBQP 131155Z AUTO 00000KT 10SM CLR M03/M03 A3012 RMK AO2 T10301033 11010 21032
KBQP 131135Z AUTO 00000KT 10SM CLR M03/M03 A3012 RMK AO2 T10301033
KBQP 131115Z AUTO 00000KT 10SM CLR M03/M03 A3012 RMK AO2 T10311034
KBQP 131055Z AUTO 00000KT 10SM CLR M03/M03 A3013 RMK AO2 T10281031
KBQP 131035Z AUTO 00000KT 10SM CLR M03/M03 A3013 RMK AO2 T10281031
KBQP 131015Z AUTO 00000KT 10SM CLR M02/M03 A3012 RMK AO2 T10251028
KBQP 130955Z AUTO 00000KT 10SM CLR M02/M03 A3013 RMK AO2 T10211035
KBQP 130935Z AUTO 00000KT 10SM CLR M01/M03 A3014 RMK AO2 T10131032
KBQP 130915Z AUTO 00000KT 10SM CLR M02/M02 A3015 RMK AO2 T10191022
KBQP 130855Z AUTO 00000KT 10SM CLR M01/M04 A3016 RMK AO2 T10121037
KBQP 130835Z AUTO 00000KT 10SM CLR M02/M02 A3016 RMK AO2 T10171020
KBQP 130815Z AUTO 00000KT 10SM CLR M02/M02 A3017 RMK AO2 T10161020
KBQP 130755Z AUTO 00000KT 10SM CLR M01/M02 A3017 RMK AO2 T10141025
KBQP 130735Z AUTO 00000KT 10SM CLR M01/M03 A3016 RMK AO2 T10131028
KBQP 130715Z AUTO 00000KT 10SM CLR M02/M02 A3016 RMK AO2 T10171025
KBQP 130655Z AUTO 00000KT 10SM CLR M01/M03 A3016 RMK AO2 T10121027
KBQP 130635Z AUTO 00000KT 10SM CLR M01/M02 A3017 RMK AO2 T10141024
KBQP 130615Z AUTO 00000KT 10SM CLR M01/M02 A3017 RMK AO2 T10121019
KBQP 130555Z AUTO 00000KT 10SM CLR M01/M02 A3018 RMK AO2 T10151019 10050 21016 401501016
KBQP 130535Z AUTO 00000KT 10SM CLR M02/M02 A3019 RMK AO2 T10161022
KBQP 130515Z AUTO 00000KT 10SM CLR M01/M02 A3019 RMK AO2 T10081023
KBQP 130455Z AUTO 00000KT 10SM CLR M01/M03 A3019 RMK AO2 T10131027
KBQP 130435Z AUTO 00000KT 10SM CLR 00/M03 A3019 RMK AO2 T10041029
KBQP 130415Z AUTO 00000KT 10SM CLR 00/M03 A3020 RMK AO2 T10021028
KBQP 130355Z AUTO 00000KT 10SM CLR 00/M02 A3020 RMK AO2 T00001024
KBQP 130335Z AUTO 00000KT 10SM CLR 00/M03 A3020 RMK AO2 T00001027
KBQP 130315Z AUTO 00000KT 10SM CLR 01/M03 A3020 RMK AO2 T00081030
KBQP 130255Z AUTO 00000KT 10SM CLR 00/M03 A3020 RMK AO2 T00011028
KBQP 130235Z AUTO 00000KT 10SM CLR 01/M03 A3020 RMK AO2 T00131030
KBQP 130215Z AUTO 00000KT 10SM CLR 01/M03 A3020 RMK AO2 T00081035
KBQP 130155Z AUTO 00000KT 10SM CLR 02/M02 A3020 RMK AO2 T00231016
KBQP 130135Z AUTO 00000KT 10SM CLR 02/M03 A3020 RMK AO2 T00191028
KBQP 130115Z AUTO 00000KT 10SM CLR 03/M03 A3020 RMK AO2 T00291029
KBQP 130055Z AUTO 00000KT 10SM CLR 03/M04 A3020 RMK AO2 T00281042
KBQP 130035Z AUTO 00000KT 10SM CLR 04/M03 A3020 RMK AO2 T00351029
KBQP 130015Z AUTO 00000KT 10SM CLR 04/M03 A3020 RMK AO2 T00391033
KBQP 122355Z AUTO 00000KT 10SM CLR 05/M03 A3020 RMK AO2 T00531029 10150 20053
KBQP 122335Z AUTO 00000KT 10SM CLR 06/M03 A3020 RMK AO2 T00601035
KBQP 122315Z AUTO 00000KT 10SM CLR 08/M04 A3019 RMK AO2 T00801037
KBQP 122255Z AUTO 00000KT 10SM CLR 11/M06 A3019 RMK AO2 T01061061
KBQP 122235Z AUTO 32004KT 10SM CLR 12/M07 A3019 RMK AO2 T01221071
KBQP 122215Z AUTO 32004KT 10SM CLR 13/M08 A3019 RMK AO2 T01301079